createdAt,value
2022-11-26T00:02:31.460Z,30.27
2022-11-26T00:05:00.113Z,32.33
2022-11-26T00:07:31.061Z,34.28
2022-11-26T00:09:59.963Z,34.00
2022-11-26T00:12:32.984Z,34.97
2022-11-26T00:15:26.327Z,31.50
2022-11-26T00:17:55.205Z,28.73
2022-11-26T00:20:30.133Z,30.03
2022-11-26T00:23:02.500Z,28.60
2022-11-26T00:25:45.269Z,31.17
2022-11-26T00:28:31.102Z,32.92
2022-11-26T00:31:02.334Z,30.17
2022-11-26T00:33:48.730Z,30.58
2022-11-26T00:36:30.107Z,30.92
2022-11-26T00:39:04.305Z,23.20
2022-11-26T00:41:36.423Z,23.85
2022-11-26T00:44:16.079Z,21.65
2022-11-26T00:46:43.743Z,21.42
2022-11-26T00:49:11.598Z,21.85
2022-11-26T00:51:39.592Z,23.30
2022-11-26T00:54:10.246Z,24.80
2022-11-26T00:56:39.983Z,23.55
2022-11-26T00:59:13.598Z,26.10
2022-11-26T01:01:41.414Z,24.83
2022-11-26T01:04:09.436Z,22.50
2022-11-26T01:06:42.091Z,25.27
2022-11-26T01:09:28.256Z,23.25
2022-11-26T01:11:55.865Z,22.88
2022-11-26T01:14:24.176Z,23.83
2022-11-26T01:16:56.346Z,21.75
2022-11-26T01:19:24.265Z,23.80
2022-11-26T01:21:51.730Z,21.17
2022-11-26T01:24:19.658Z,23.05
2022-11-26T01:26:47.147Z,24.20
2022-11-26T01:29:19.739Z,22.13
2022-11-26T01:31:47.823Z,21.13
2022-11-26T01:34:15.810Z,22.08
2022-11-26T01:36:43.404Z,23.50
2022-11-26T01:39:18.817Z,24.52
2022-11-26T01:41:54.416Z,24.23
2022-11-26T01:44:30.408Z,22.13
2022-11-26T01:46:59.622Z,22.23
2022-11-26T01:49:34.517Z,21.13
2022-11-26T01:52:25.817Z,23.77
2022-11-26T01:54:54.471Z,24.42
2022-11-26T01:57:32.924Z,22.73
2022-11-26T02:00:01.633Z,24.58
2022-11-26T02:02:30.028Z,25.75
2022-11-26T02:05:24.190Z,33.30
2022-11-26T02:07:53.330Z,36.65
2022-11-26T02:10:21.154Z,42.25
2022-11-26T02:12:50.084Z,41.83
2022-11-26T02:15:18.102Z,35.95
2022-11-26T02:18:01.516Z,40.38
2022-11-26T02:21:00.584Z,46.67
2022-11-26T02:23:52.254Z,35.17
2022-11-26T02:26:59.443Z,48.50
2022-11-26T02:29:49.792Z,45.08
2022-11-26T02:32:24.125Z,46.42
2022-11-26T02:34:59.720Z,48.75
2022-11-26T02:38:02.863Z,45.63
2022-11-26T02:40:30.432Z,46.28
2022-11-26T02:42:58.505Z,43.72
2022-11-26T02:45:32.736Z,42.88
2022-11-26T02:48:03.728Z,43.55
2022-11-26T02:50:57.011Z,40.72
2022-11-26T02:53:45.505Z,42.13
2022-11-26T02:56:22.588Z,42.88
2022-11-26T02:58:52.822Z,44.40
2022-11-26T03:01:31.885Z,42.50
2022-11-26T03:06:34.425Z,40.97
2022-11-26T03:09:02.460Z,38.28
2022-11-26T03:11:30.792Z,39.60
2022-11-26T03:13:59.271Z,37.08
2022-11-26T03:16:26.890Z,39.08
2022-11-26T03:18:54.943Z,36.95
2022-11-26T03:21:22.736Z,37.40
2022-11-26T03:23:50.774Z,36.25
2022-11-26T03:26:18.774Z,35.72
2022-11-26T03:28:46.964Z,36.40
2022-11-26T03:31:16.255Z,37.28
2022-11-26T03:36:12.606Z,30.40
2022-11-26T03:38:41.195Z,28.90
2022-11-26T03:41:09.530Z,29.75
2022-11-26T03:43:38.273Z,31.05
2022-11-26T03:46:06.635Z,32.72
2022-11-26T03:48:34.925Z,32.92
2022-11-26T03:51:02.713Z,33.03
2022-11-26T03:53:30.575Z,33.28
2022-11-26T03:55:58.163Z,32.05
2022-11-26T03:58:26.046Z,31.35
2022-11-26T04:00:53.670Z,29.52
2022-11-26T04:03:21.975Z,32.03
2022-11-26T04:05:49.926Z,34.20
2022-11-26T04:08:18.613Z,31.50
2022-11-26T04:10:46.576Z,27.30
2022-11-26T04:13:14.560Z,29.00
2022-11-26T04:15:42.121Z,25.58
2022-11-26T04:18:09.968Z,25.30
2022-11-26T04:20:37.448Z,27.00
2022-11-26T04:23:05.731Z,25.85
2022-11-26T04:25:33.524Z,32.35
2022-11-26T04:28:01.446Z,32.78
2022-11-26T04:30:30.033Z,35.25
2022-11-26T04:32:57.993Z,36.80
2022-11-26T04:35:25.606Z,33.90
2022-11-26T04:37:53.485Z,35.08
2022-11-26T04:40:21.010Z,36.55
2022-11-26T04:42:48.828Z,37.13
2022-11-26T04:45:16.329Z,36.05
2022-11-26T04:47:44.229Z,36.83
2022-11-26T04:50:12.551Z,37.25
2022-11-26T04:52:58.887Z,33.45
2022-11-26T04:55:26.359Z,36.15
2022-11-26T04:57:54.190Z,38.80
2022-11-26T05:00:22.020Z,34.97
2022-11-26T05:02:49.912Z,35.10
2022-11-26T05:05:17.750Z,34.70
2022-11-26T05:07:45.633Z,35.58
2022-11-26T05:10:13.737Z,35.78
2022-11-26T05:12:41.662Z,35.60
2022-11-26T05:15:09.645Z,34.88
2022-11-26T05:17:38.013Z,33.70
2022-11-26T05:20:06.807Z,34.60
2022-11-26T05:22:34.902Z,36.45
2022-11-26T05:25:02.425Z,36.85
2022-11-26T05:27:30.328Z,34.45
2022-11-26T05:29:57.856Z,34.03
2022-11-26T05:32:25.666Z,34.20
2022-11-26T05:34:57.030Z,34.72
2022-11-26T05:37:27.942Z,34.25
2022-11-26T05:39:55.454Z,36.30
2022-11-26T05:42:23.572Z,33.65
2022-11-26T05:44:51.136Z,35.47
2022-11-26T05:47:21.396Z,33.17
2022-11-26T05:49:49.162Z,33.47
2022-11-26T05:52:17.013Z,35.35
2022-11-26T05:54:44.613Z,32.78
2022-11-26T05:57:12.603Z,33.50
2022-11-26T05:59:40.168Z,32.80
2022-11-26T06:02:27.191Z,34.20
2022-11-26T06:04:54.849Z,32.55
2022-11-26T06:07:22.822Z,33.38
2022-11-26T06:09:50.356Z,31.90
2022-11-26T06:12:19.301Z,33.58
2022-11-26T06:14:48.170Z,33.47
2022-11-26T06:17:16.485Z,32.35
2022-11-26T06:19:44.067Z,33.67
2022-11-26T06:22:11.953Z,32.83
2022-11-26T06:24:39.845Z,30.33
2022-11-26T06:27:08.072Z,32.05
2022-11-26T06:29:35.896Z,30.27
2022-11-26T06:32:03.985Z,30.98
2022-11-26T06:34:31.707Z,31.88
2022-11-26T06:36:59.539Z,31.60
2022-11-26T06:39:27.283Z,31.35
2022-11-26T06:41:55.178Z,30.40
2022-11-26T06:44:22.656Z,31.60
2022-11-26T06:46:50.598Z,32.65
2022-11-26T06:49:18.212Z,33.85
2022-11-26T06:51:46.086Z,31.88
2022-11-26T06:54:14.371Z,36.65
2022-11-26T06:56:42.230Z,35.73
2022-11-26T06:59:09.760Z,39.13
2022-11-26T07:01:38.425Z,35.75
2022-11-26T07:04:06.138Z,34.63
2022-11-26T07:06:34.384Z,35.15
2022-11-26T07:09:09.024Z,34.63
2022-11-26T07:11:38.380Z,35.50
2022-11-26T07:14:07.170Z,34.85
2022-11-26T07:16:36.249Z,35.58
2022-11-26T07:19:03.995Z,37.22
2022-11-26T07:21:32.044Z,36.30
2022-11-26T07:24:00.105Z,34.78
2022-11-26T07:26:27.988Z,30.15
2022-11-26T07:28:55.516Z,40.35
2022-11-26T07:31:24.417Z,35.88
2022-11-26T07:33:52.439Z,37.78
2022-11-26T07:36:27.747Z,39.35
2022-11-26T07:38:58.193Z,43.45
2022-11-26T07:41:27.784Z,42.47
2022-11-26T07:43:55.839Z,40.17
2022-11-26T07:46:29.889Z,42.92
2022-11-26T07:48:58.586Z,44.00
2022-11-26T07:51:32.114Z,43.83
2022-11-26T07:54:06.056Z,44.30
2022-11-26T07:56:34.744Z,44.38
2022-11-26T07:59:04.138Z,40.03
2022-11-26T08:01:32.688Z,38.92
2022-11-26T08:04:19.224Z,38.22
2022-11-26T08:06:48.477Z,38.00
2022-11-26T08:09:16.146Z,37.80
2022-11-26T08:11:44.822Z,38.50
2022-11-26T08:14:13.764Z,38.67
2022-11-26T08:16:42.758Z,40.38
2022-11-26T08:19:14.419Z,37.85
2022-11-26T08:21:42.603Z,37.53
2022-11-26T08:24:19.163Z,36.88
2022-11-26T08:26:47.728Z,39.13
2022-11-26T08:29:15.605Z,38.10
2022-11-26T08:31:46.514Z,36.40
2022-11-26T08:34:16.505Z,40.03
2022-11-26T08:36:45.623Z,38.92
2022-11-26T08:41:50.593Z,35.70
2022-11-26T08:44:27.915Z,40.13
2022-11-26T08:46:55.398Z,38.13
2022-11-26T08:49:23.297Z,37.35
2022-11-26T08:51:50.797Z,36.60
2022-11-26T08:54:18.601Z,39.05
2022-11-26T08:56:46.148Z,38.30
2022-11-26T08:59:14.131Z,39.92
2022-11-26T09:01:41.859Z,40.53
2022-11-26T09:04:09.899Z,42.15
2022-11-26T09:06:37.861Z,39.33
2022-11-26T09:09:12.749Z,42.30
2022-11-26T09:11:57.449Z,42.15
2022-11-26T09:14:29.096Z,43.80
2022-11-26T09:16:58.348Z,41.75
2022-11-26T09:21:55.799Z,43.13
2022-11-26T09:24:23.823Z,42.92
2022-11-26T09:26:52.094Z,44.88
2022-11-26T09:29:23.039Z,43.93
2022-11-26T09:37:08.754Z,45.22
2022-11-26T09:39:36.537Z,46.17
2022-11-26T09:42:31.741Z,45.22
2022-11-26T09:45:19.072Z,44.88
2022-11-26T09:47:52.620Z,46.00
2022-11-26T09:50:32.159Z,48.30
2022-11-26T09:53:09.559Z,47.40
2022-11-26T09:55:43.605Z,49.40
2022-11-26T09:58:36.370Z,46.35
2022-11-26T10:01:06.852Z,43.72
2022-11-26T10:03:37.903Z,40.65
2022-11-26T10:06:34.343Z,38.90
2022-11-26T10:09:16.905Z,37.88
2022-11-26T10:12:26.126Z,36.00
2022-11-26T10:15:34.140Z,35.15
2022-11-26T10:18:37.456Z,35.05
2022-11-26T10:21:57.017Z,35.50
2022-11-26T10:24:38.679Z,36.17
2022-11-26T10:27:24.448Z,38.38
2022-11-26T10:29:59.677Z,35.05
2022-11-26T10:32:39.174Z,35.22
2022-11-26T10:35:14.221Z,34.13
2022-11-26T10:37:41.932Z,34.22
2022-11-26T10:40:12.632Z,33.90
2022-11-26T10:42:43.916Z,31.25
2022-11-26T10:45:42.132Z,30.70
2022-11-26T10:48:32.005Z,31.30
2022-11-26T10:51:30.344Z,34.88
2022-11-26T10:54:03.957Z,38.22
2022-11-26T10:56:47.605Z,39.08
2022-11-26T10:59:38.028Z,41.53
2022-11-26T11:02:31.511Z,40.75
2022-11-26T11:05:04.516Z,40.67
2022-11-26T11:07:38.732Z,42.35
2022-11-26T11:10:17.977Z,44.50
2022-11-26T11:13:00.961Z,42.85
2022-11-26T11:15:32.620Z,43.35
2022-11-26T11:18:21.992Z,47.55
2022-11-26T11:20:56.688Z,45.08
2022-11-26T11:23:59.998Z,46.20
2022-11-26T11:26:24.948Z,39.90
2022-11-26T11:28:56.623Z,39.92
2022-11-26T11:31:28.236Z,40.20
2022-11-26T11:34:23.871Z,38.38
2022-11-26T11:37:27.037Z,37.15
2022-11-26T11:40:17.201Z,35.05
2022-11-26T11:42:52.848Z,33.88
2022-11-26T11:45:38.833Z,34.15
2022-11-26T11:48:35.587Z,34.60
2022-11-26T11:51:47.434Z,33.13
2022-11-26T11:54:23.890Z,32.58
2022-11-26T11:57:12.719Z,34.72
2022-11-26T12:00:13.621Z,35.13
2022-11-26T12:02:53.606Z,36.97
2022-11-26T12:06:05.902Z,39.22
2022-11-26T12:08:51.313Z,42.17
2022-11-26T12:11:22.803Z,43.85
2022-11-26T12:14:20.873Z,46.80
2022-11-26T12:16:55.702Z,46.33
2022-11-26T12:19:54.736Z,45.13
2022-11-26T12:22:49.173Z,45.97
2022-11-26T12:25:38.156Z,44.83
2022-11-26T12:28:19.608Z,44.90
2022-11-26T12:31:49.201Z,46.22
2022-11-26T12:37:11.358Z,41.08
2022-11-26T12:40:11.917Z,39.05
2022-11-26T12:43:07.134Z,40.03
2022-11-26T12:46:01.630Z,35.72
2022-11-26T12:48:53.872Z,36.33
2022-11-26T12:51:42.174Z,39.45
2022-11-26T12:54:47.172Z,38.43
2022-11-26T12:57:34.358Z,36.22
2022-11-26T13:00:26.122Z,37.28
2022-11-26T13:02:56.010Z,35.78
2022-11-26T13:05:51.292Z,34.90
2022-11-26T13:08:48.676Z,32.75
2022-11-26T13:11:34.732Z,33.83
2022-11-26T13:14:14.658Z,31.13
2022-11-26T13:17:11.066Z,29.58
2022-11-26T13:20:01.416Z,27.98
2022-11-26T13:23:00.121Z,29.05
2022-11-26T13:26:02.083Z,29.30
2022-11-26T13:29:13.954Z,22.35
2022-11-26T13:32:13.160Z,22.63
2022-11-26T13:35:12.572Z,24.13
2022-11-26T13:40:47.054Z,30.08
2022-11-26T13:44:00.573Z,30.40
2022-11-26T13:46:31.727Z,28.88
2022-11-26T13:49:24.921Z,37.40
2022-11-26T13:52:10.392Z,37.10
2022-11-26T13:55:08.865Z,37.25
2022-11-26T13:57:45.421Z,43.03
2022-11-26T14:00:26.513Z,44.90
2022-11-26T14:02:54.963Z,49.58
2022-11-26T14:05:51.744Z,48.40
2022-11-26T14:08:41.483Z,48.88
2022-11-26T14:13:38.114Z,50.55
2022-11-26T14:16:10.712Z,51.47
2022-11-26T14:18:53.563Z,52.88
2022-11-26T14:21:22.507Z,55.95
2022-11-26T14:24:02.112Z,56.95
2022-11-26T14:26:40.102Z,55.65
2022-11-26T14:29:07.979Z,53.78
2022-11-26T14:31:50.406Z,49.75
2022-11-26T14:34:39.740Z,40.67
2022-11-26T14:37:16.908Z,35.55
2022-11-26T14:39:45.651Z,38.15
2022-11-26T14:42:18.122Z,46.20
2022-11-26T14:44:46.119Z,46.78
2022-11-26T14:47:22.123Z,44.55
2022-11-26T14:50:00.292Z,34.15
2022-11-26T14:52:35.896Z,29.80
2022-11-26T14:55:28.965Z,29.90
2022-11-26T14:58:10.291Z,29.05
2022-11-26T15:00:38.256Z,28.45
2022-11-26T15:03:26.674Z,30.02
2022-11-26T15:05:54.715Z,29.85
2022-11-26T15:08:27.030Z,30.98
2022-11-26T15:11:02.843Z,30.38
2022-11-26T15:13:38.302Z,34.55
2022-11-26T15:16:36.556Z,34.00
2022-11-26T15:19:06.724Z,37.50
2022-11-26T15:21:34.864Z,37.65
2022-11-26T15:24:07.447Z,38.00
2022-11-26T15:26:38.591Z,42.42
2022-11-26T15:29:36.871Z,38.47
2022-11-26T15:32:06.500Z,40.25
2022-11-26T15:34:34.482Z,42.13
2022-11-26T15:37:04.035Z,40.85
2022-11-26T15:39:32.245Z,44.97
2022-11-26T15:42:22.273Z,43.50
2022-11-26T15:44:50.592Z,42.65
2022-11-26T15:47:22.809Z,49.03
2022-11-26T15:49:56.647Z,50.30
2022-11-26T15:52:32.860Z,46.28
2022-11-26T15:55:13.185Z,43.78
2022-11-26T15:57:43.121Z,39.40
2022-11-26T16:00:41.162Z,42.45
2022-11-26T16:03:42.991Z,44.40
2022-11-26T16:06:30.421Z,40.72
2022-11-26T16:09:07.718Z,41.13
2022-11-26T16:11:55.729Z,41.13
2022-11-26T16:14:35.753Z,37.40
2022-11-26T16:19:56.222Z,35.92
2022-11-26T16:22:28.902Z,36.42
2022-11-26T16:25:04.178Z,32.75
2022-11-26T16:27:33.282Z,34.08
2022-11-26T16:30:14.858Z,34.20
2022-11-26T16:32:42.386Z,34.47
2022-11-26T16:35:37.533Z,35.70
2022-11-26T16:37:58.763Z,33.05
2022-11-26T16:40:27.828Z,30.27
2022-11-26T16:42:56.134Z,30.40
2022-11-26T16:45:24.026Z,27.00
2022-11-26T16:47:56.091Z,26.83
2022-11-26T16:50:27.435Z,26.02
2022-11-26T16:52:55.995Z,25.08
2022-11-26T16:55:27.425Z,24.50
2022-11-26T16:57:59.646Z,26.83
2022-11-26T17:00:28.379Z,24.17
2022-11-26T17:02:56.365Z,24.93
2022-11-26T17:05:25.933Z,26.80
2022-11-26T17:08:00.083Z,28.23
2022-11-26T17:10:29.884Z,25.58
2022-11-26T17:12:58.386Z,28.13
2022-11-26T17:15:26.501Z,24.35
2022-11-26T17:18:05.420Z,25.58
2022-11-26T17:20:33.428Z,28.40
2022-11-26T17:23:00.967Z,24.48
2022-11-26T17:25:29.096Z,27.25
2022-11-26T17:27:56.864Z,27.55
2022-11-26T17:30:25.196Z,25.98
2022-11-26T17:32:52.916Z,24.48
2022-11-26T17:35:21.147Z,26.85
2022-11-26T17:37:48.888Z,28.58
2022-11-26T17:40:24.148Z,29.70
2022-11-26T17:42:51.929Z,31.02
2022-11-26T17:45:20.214Z,32.42
2022-11-26T17:47:48.711Z,33.13
2022-11-26T17:50:25.538Z,24.80
2022-11-26T17:52:54.639Z,35.42
2022-11-26T17:55:25.637Z,35.83
2022-11-26T17:57:55.990Z,36.25
2022-11-26T18:00:28.531Z,34.47
2022-11-26T18:02:57.477Z,34.30
2022-11-26T18:05:25.916Z,39.88
2022-11-26T18:07:53.565Z,40.30
2022-11-26T18:10:23.086Z,46.45
2022-11-26T18:12:54.325Z,42.50
2022-11-26T18:15:27.088Z,39.17
2022-11-26T18:17:55.981Z,41.67
2022-11-26T18:20:28.120Z,37.97
2022-11-26T18:22:59.981Z,37.75
2022-11-26T18:25:29.202Z,37.15
2022-11-26T18:27:56.842Z,37.80
2022-11-26T18:30:25.489Z,36.67
2022-11-26T18:32:53.269Z,36.30
2022-11-26T18:35:22.922Z,34.58
2022-11-26T18:37:51.205Z,36.88
2022-11-26T18:40:22.444Z,34.90
2022-11-26T18:42:53.210Z,36.15
2022-11-26T18:45:21.129Z,35.67
2022-11-26T18:47:48.715Z,35.63
2022-11-26T18:50:16.855Z,35.65
2022-11-26T18:52:44.583Z,35.25
2022-11-26T18:55:15.089Z,36.00
2022-11-26T18:57:42.641Z,33.95
2022-11-26T19:00:11.199Z,35.50
2022-11-26T19:02:38.855Z,36.55
2022-11-26T19:05:08.918Z,37.22
2022-11-26T19:07:37.558Z,36.33
2022-11-26T19:10:07.153Z,35.60
2022-11-26T19:15:02.651Z,37.15
2022-11-26T19:17:30.271Z,38.25
2022-11-26T19:19:58.169Z,39.15
2022-11-26T19:22:25.729Z,39.40
2022-11-26T19:24:53.545Z,39.50
2022-11-26T19:27:21.072Z,40.00
2022-11-26T19:29:49.219Z,39.75
2022-11-26T19:32:17.600Z,39.60
2022-11-26T19:34:45.665Z,54.97
2022-11-26T19:37:13.194Z,45.70
2022-11-26T19:39:41.505Z,44.30
2022-11-26T19:42:10.807Z,41.88
2022-11-26T19:44:38.714Z,45.72
2022-11-26T19:47:06.363Z,45.20
2022-11-26T19:49:34.691Z,51.92
2022-11-26T19:52:02.178Z,70.97
2022-11-26T19:54:32.334Z,52.47
2022-11-26T19:56:59.880Z,43.67
2022-11-26T19:59:27.741Z,42.42
2022-11-26T20:01:55.921Z,41.90
2022-11-26T20:04:27.466Z,42.60
2022-11-26T20:06:55.418Z,40.83
2022-11-26T20:09:23.280Z,42.03
2022-11-26T20:11:50.823Z,40.88
2022-11-26T20:14:18.893Z,43.05
2022-11-26T20:16:47.022Z,44.10
2022-11-26T20:19:14.993Z,46.40
2022-11-26T20:21:42.526Z,45.78
2022-11-26T20:24:17.908Z,46.63
2022-11-26T20:26:48.649Z,46.65
2022-11-26T20:29:19.355Z,46.05
2022-11-26T20:31:49.946Z,44.03
2022-11-26T20:34:29.992Z,44.10
2022-11-26T20:36:57.542Z,49.10
2022-11-26T20:39:25.677Z,46.08
2022-11-26T20:41:53.282Z,56.05
2022-11-26T20:44:23.149Z,50.88
2022-11-26T20:46:51.267Z,48.70
2022-11-26T20:49:19.817Z,50.25
2022-11-26T20:51:47.548Z,48.42
2022-11-26T20:54:17.734Z,48.70
2022-11-26T20:56:47.086Z,47.78
2022-11-26T20:59:14.891Z,48.67
2022-11-26T21:01:42.695Z,51.63
2022-11-26T21:04:10.742Z,48.42
2022-11-26T21:06:41.822Z,46.90
2022-11-26T21:09:12.906Z,46.90
2022-11-26T21:11:41.648Z,50.95
2022-11-26T21:14:14.621Z,50.72
2022-11-26T21:16:45.140Z,53.03
2022-11-26T21:19:13.741Z,50.70
2022-11-26T21:21:41.942Z,51.90
2022-11-26T21:24:09.726Z,48.47
2022-11-26T21:26:37.317Z,46.17
2022-11-26T21:29:05.134Z,50.47
2022-11-26T21:31:32.861Z,48.75
2022-11-26T21:34:07.522Z,51.50
2022-11-26T21:36:38.177Z,48.78
2022-11-26T21:39:07.179Z,54.17
2022-11-26T21:41:35.735Z,55.10
2022-11-26T21:44:04.305Z,53.00
2022-11-26T21:46:38.286Z,55.88
2022-11-26T21:49:07.662Z,55.85
2022-11-26T21:51:35.373Z,56.72
2022-11-26T21:54:03.724Z,56.35
2022-11-26T21:56:32.542Z,54.05
2022-11-26T21:59:02.001Z,55.75
2022-11-26T22:01:33.332Z,56.30
2022-11-26T22:04:07.952Z,54.53
2022-11-26T22:06:35.778Z,56.17
2022-11-26T22:09:04.586Z,54.55
2022-11-26T22:11:36.721Z,55.10
2022-11-26T22:14:08.291Z,53.95
2022-11-26T22:16:36.534Z,53.05
2022-11-26T22:19:05.442Z,54.97
2022-11-26T22:21:38.569Z,50.95
2022-11-26T22:24:11.272Z,51.92
2022-11-26T22:26:39.366Z,52.78
2022-11-26T22:29:07.821Z,52.63
2022-11-26T22:31:38.283Z,55.20
2022-11-26T22:34:16.659Z,53.90
2022-11-26T22:36:45.586Z,53.22
2022-11-26T22:39:16.573Z,55.80
2022-11-26T22:41:48.426Z,56.10
2022-11-26T22:44:17.903Z,54.05
2022-11-26T22:46:45.778Z,57.83
2022-11-26T22:49:18.968Z,56.25
2022-11-26T22:51:47.472Z,55.45
2022-11-26T22:54:17.986Z,56.47
2022-11-26T22:56:45.705Z,61.05
2022-11-26T22:59:14.870Z,58.30
2022-11-26T23:01:42.665Z,57.05
2022-11-26T23:04:11.949Z,61.00
2022-11-26T23:06:40.388Z,56.13
2022-11-26T23:09:10.961Z,61.20
2022-11-26T23:11:42.021Z,57.33
2022-11-26T23:14:12.148Z,54.08
2022-11-26T23:16:42.549Z,55.17
2022-11-26T23:19:14.028Z,53.40
2022-11-26T23:21:43.529Z,54.95
2022-11-26T23:24:12.465Z,52.55
2022-11-26T23:26:43.022Z,53.23
2022-11-26T23:29:12.230Z,53.70
2022-11-26T23:31:42.859Z,54.03
2022-11-26T23:34:11.402Z,53.92
2022-11-26T23:36:39.995Z,54.15
2022-11-26T23:39:11.079Z,53.78
2022-11-26T23:41:38.669Z,51.90
2022-11-26T23:44:06.519Z,50.42
2022-11-26T23:46:35.532Z,50.85
2022-11-26T23:49:04.757Z,51.75
2022-11-26T23:51:33.672Z,48.55
2022-11-26T23:54:01.756Z,50.80
2022-11-26T23:56:32.478Z,49.97
2022-11-26T23:59:03.995Z,51.88
